sensor_id;sensor_type;location;lat;lon;timestamp;P1;durP1;ratioP1;P2;durP2;ratioP2
70558;SDS011;58108;48.094;11.838;2022-08-21T00:00:45;3.93;;;1.87;;
70558;SDS011;58108;48.094;11.838;2022-08-21T00:03:11;4.47;;;1.70;;
70558;SDS011;58108;48.094;11.838;2022-08-21T00:05:40;3.78;;;1.83;;
70558;SDS011;58108;48.094;11.838;2022-08-21T00:08:08;3.45;;;1.40;;
70558;SDS011;58108;48.094;11.838;2022-08-21T00:10:34;3.90;;;1.80;;
70558;SDS011;58108;48.094;11.838;2022-08-21T00:13:00;4.45;;;1.73;;
70558;SDS011;58108;48.094;11.838;2022-08-21T00:15:28;4.20;;;1.80;;
70558;SDS011;58108;48.094;11.838;2022-08-21T00:17:54;4.10;;;1.42;;
70558;SDS011;58108;48.094;11.838;2022-08-21T00:20:20;3.37;;;1.90;;
70558;SDS011;58108;48.094;11.838;2022-08-21T00:22:48;3.20;;;1.42;;
70558;SDS011;58108;48.094;11.838;2022-08-21T00:25:15;3.45;;;1.77;;
70558;SDS011;58108;48.094;11.838;2022-08-21T00:27:40;3.72;;;1.35;;
70558;SDS011;58108;48.094;11.838;2022-08-21T00:30:07;4.03;;;1.75;;
70558;SDS011;58108;48.094;11.838;2022-08-21T00:32:36;3.40;;;1.50;;
70558;SDS011;58108;48.094;11.838;2022-08-21T00:35:03;3.22;;;1.40;;
70558;SDS011;58108;48.094;11.838;2022-08-21T00:37:29;3.40;;;1.40;;
70558;SDS011;58108;48.094;11.838;2022-08-21T00:39:54;3.73;;;1.60;;
70558;SDS011;58108;48.094;11.838;2022-08-21T00:42:20;3.10;;;1.53;;
70558;SDS011;58108;48.094;11.838;2022-08-21T00:44:46;3.43;;;1.50;;
70558;SDS011;58108;48.094;11.838;2022-08-21T00:47:13;3.35;;;1.35;;
70558;SDS011;58108;48.094;11.838;2022-08-21T00:49:39;3.53;;;1.30;;
70558;SDS011;58108;48.094;11.838;2022-08-21T00:52:05;3.72;;;1.40;;
70558;SDS011;58108;48.094;11.838;2022-08-21T00:54:34;3.70;;;1.30;;
70558;SDS011;58108;48.094;11.838;2022-08-21T00:57:05;3.15;;;1.23;;
70558;SDS011;58108;48.094;11.838;2022-08-21T00:59:36;2.97;;;1.30;;
70558;SDS011;58108;48.094;11.838;2022-08-21T01:02:04;2.80;;;1.30;;
70558;SDS011;58108;48.094;11.838;2022-08-21T01:04:32;2.53;;;1.13;;
70558;SDS011;58108;48.094;11.838;2022-08-21T01:06:58;5.43;;;1.45;;
70558;SDS011;58108;48.094;11.838;2022-08-21T01:09:23;3.30;;;1.33;;
70558;SDS011;58108;48.094;11.838;2022-08-21T01:11:48;2.80;;;1.20;;
70558;SDS011;58108;48.094;11.838;2022-08-21T01:14:14;3.05;;;1.30;;
70558;SDS011;58108;48.094;11.838;2022-08-21T01:16:41;3.33;;;1.10;;
70558;SDS011;58108;48.094;11.838;2022-08-21T01:19:09;2.78;;;1.30;;
70558;SDS011;58108;48.094;11.838;2022-08-21T01:21:36;3.83;;;1.70;;
70558;SDS011;58108;48.094;11.838;2022-08-21T01:24:02;4.03;;;1.40;;
70558;SDS011;58108;48.094;11.838;2022-08-21T01:26:32;2.80;;;1.40;;
70558;SDS011;58108;48.094;11.838;2022-08-21T01:29:05;3.33;;;1.30;;
70558;SDS011;58108;48.094;11.838;2022-08-21T01:31:50;2.90;;;1.08;;
70558;SDS011;58108;48.094;11.838;2022-08-21T01:34:16;3.13;;;1.50;;
70558;SDS011;58108;48.094;11.838;2022-08-21T01:36:41;2.20;;;1.00;;
70558;SDS011;58108;48.094;11.838;2022-08-21T01:39:08;2.90;;;1.30;;
70558;SDS011;58108;48.094;11.838;2022-08-21T01:41:34;2.88;;;1.10;;
70558;SDS011;58108;48.094;11.838;2022-08-21T01:43:59;3.97;;;1.27;;
70558;SDS011;58108;48.094;11.838;2022-08-21T01:46:25;2.70;;;1.20;;
70558;SDS011;58108;48.094;11.838;2022-08-21T01:48:50;3.67;;;1.47;;
70558;SDS011;58108;48.094;11.838;2022-08-21T01:51:15;3.17;;;1.03;;
70558;SDS011;58108;48.094;11.838;2022-08-21T01:53:41;2.30;;;1.10;;
70558;SDS011;58108;48.094;11.838;2022-08-21T01:56:07;2.70;;;1.30;;
70558;SDS011;58108;48.094;11.838;2022-08-21T01:58:36;2.45;;;0.90;;
70558;SDS011;58108;48.094;11.838;2022-08-21T02:01:01;2.80;;;1.17;;
70558;SDS011;58108;48.094;11.838;2022-08-21T02:03:29;2.58;;;1.13;;
70558;SDS011;58108;48.094;11.838;2022-08-21T02:05:55;2.70;;;0.82;;
70558;SDS011;58108;48.094;11.838;2022-08-21T02:08:20;2.47;;;1.00;;
70558;SDS011;58108;48.094;11.838;2022-08-21T02:10:48;2.40;;;0.80;;
70558;SDS011;58108;48.094;11.838;2022-08-21T02:13:15;4.43;;;1.00;;
70558;SDS011;58108;48.094;11.838;2022-08-21T02:15:40;2.50;;;1.20;;
70558;SDS011;58108;48.094;11.838;2022-08-21T02:18:06;2.47;;;1.20;;
70558;SDS011;58108;48.094;11.838;2022-08-21T02:20:33;3.28;;;1.10;;
70558;SDS011;58108;48.094;11.838;2022-08-21T02:23:03;2.27;;;0.90;;
70558;SDS011;58108;48.094;11.838;2022-08-21T02:25:30;2.10;;;0.90;;
70558;SDS011;58108;48.094;11.838;2022-08-21T02:27:56;2.20;;;0.95;;
70558;SDS011;58108;48.094;11.838;2022-08-21T02:30:27;2.58;;;0.93;;
70558;SDS011;58108;48.094;11.838;2022-08-21T02:32:58;2.60;;;1.00;;
70558;SDS011;58108;48.094;11.838;2022-08-21T02:35:24;2.33;;;1.00;;
70558;SDS011;58108;48.094;11.838;2022-08-21T02:37:51;2.20;;;0.80;;
70558;SDS011;58108;48.094;11.838;2022-08-21T02:40:24;3.10;;;1.30;;
70558;SDS011;58108;48.094;11.838;2022-08-21T02:42:52;2.45;;;1.00;;
70558;SDS011;58108;48.094;11.838;2022-08-21T02:45:17;2.27;;;0.50;;
70558;SDS011;58108;48.094;11.838;2022-08-21T02:47:55;3.30;;;0.90;;
70558;SDS011;58108;48.094;11.838;2022-08-21T02:50:23;3.07;;;0.90;;
70558;SDS011;58108;48.094;11.838;2022-08-21T02:52:53;2.28;;;0.82;;
70558;SDS011;58108;48.094;11.838;2022-08-21T02:55:19;4.00;;;1.05;;
70558;SDS011;58108;48.094;11.838;2022-08-21T02:57:45;2.67;;;0.80;;
70558;SDS011;58108;48.094;11.838;2022-08-21T03:00:11;2.10;;;0.90;;
70558;SDS011;58108;48.094;11.838;2022-08-21T03:02:38;3.05;;;1.10;;
70558;SDS011;58108;48.094;11.838;2022-08-21T03:05:04;2.23;;;0.97;;
70558;SDS011;58108;48.094;11.838;2022-08-21T03:07:31;2.00;;;0.80;;
70558;SDS011;58108;48.094;11.838;2022-08-21T03:09:56;2.60;;;0.90;;
70558;SDS011;58108;48.094;11.838;2022-08-21T03:12:22;2.97;;;1.00;;
70558;SDS011;58108;48.094;11.838;2022-08-21T03:14:48;3.00;;;0.90;;
70558;SDS011;58108;48.094;11.838;2022-08-21T03:17:13;2.40;;;1.00;;
70558;SDS011;58108;48.094;11.838;2022-08-21T03:19:38;2.50;;;1.07;;
70558;SDS011;58108;48.094;11.838;2022-08-21T03:22:04;3.03;;;1.20;;
70558;SDS011;58108;48.094;11.838;2022-08-21T03:24:30;3.25;;;1.10;;
70558;SDS011;58108;48.094;11.838;2022-08-21T03:26:55;3.58;;;0.90;;
70558;SDS011;58108;48.094;11.838;2022-08-21T03:29:21;2.20;;;1.07;;
70558;SDS011;58108;48.094;11.838;2022-08-21T03:31:47;2.38;;;1.00;;
70558;SDS011;58108;48.094;11.838;2022-08-21T03:34:12;2.10;;;0.80;;
70558;SDS011;58108;48.094;11.838;2022-08-21T03:36:38;2.97;;;1.10;;
70558;SDS011;58108;48.094;11.838;2022-08-21T03:39:03;2.10;;;0.80;;
70558;SDS011;58108;48.094;11.838;2022-08-21T03:41:28;3.00;;;1.20;;
70558;SDS011;58108;48.094;11.838;2022-08-21T03:43:54;2.50;;;1.07;;
70558;SDS011;58108;48.094;11.838;2022-08-21T03:46:19;2.47;;;1.07;;
70558;SDS011;58108;48.094;11.838;2022-08-21T03:48:45;2.97;;;1.00;;
70558;SDS011;58108;48.094;11.838;2022-08-21T03:51:10;3.37;;;1.00;;
70558;SDS011;58108;48.094;11.838;2022-08-21T03:53:36;3.10;;;0.97;;
70558;SDS011;58108;48.094;11.838;2022-08-21T03:56:01;2.13;;;0.90;;
70558;SDS011;58108;48.094;11.838;2022-08-21T03:58:28;3.55;;;0.95;;
70558;SDS011;58108;48.094;11.838;2022-08-21T04:00:55;2.95;;;1.00;;
70558;SDS011;58108;48.094;11.838;2022-08-21T04:03:23;2.60;;;1.00;;
70558;SDS011;58108;48.094;11.838;2022-08-21T04:05:49;3.15;;;0.77;;
70558;SDS011;58108;48.094;11.838;2022-08-21T04:08:14;2.40;;;0.90;;
70558;SDS011;58108;48.094;11.838;2022-08-21T04:10:44;2.53;;;0.98;;
70558;SDS011;58108;48.094;11.838;2022-08-21T04:13:12;2.80;;;1.13;;
70558;SDS011;58108;48.094;11.838;2022-08-21T04:15:37;2.97;;;1.10;;
70558;SDS011;58108;48.094;11.838;2022-08-21T04:18:03;2.75;;;1.25;;
70558;SDS011;58108;48.094;11.838;2022-08-21T04:20:29;2.60;;;1.00;;
70558;SDS011;58108;48.094;11.838;2022-08-21T04:22:55;2.75;;;1.10;;
70558;SDS011;58108;48.094;11.838;2022-08-21T04:25:21;3.15;;;0.90;;
70558;SDS011;58108;48.094;11.838;2022-08-21T04:27:48;3.47;;;1.03;;
70558;SDS011;58108;48.094;11.838;2022-08-21T04:30:14;3.30;;;0.90;;
70558;SDS011;58108;48.094;11.838;2022-08-21T04:32:44;3.97;;;1.27;;
70558;SDS011;58108;48.094;11.838;2022-08-21T04:35:14;2.70;;;1.20;;
70558;SDS011;58108;48.094;11.838;2022-08-21T04:37:41;3.85;;;1.20;;
70558;SDS011;58108;48.094;11.838;2022-08-21T04:40:07;4.43;;;0.93;;
70558;SDS011;58108;48.094;11.838;2022-08-21T04:42:40;2.57;;;1.10;;
70558;SDS011;58108;48.094;11.838;2022-08-21T04:45:09;3.47;;;0.95;;
70558;SDS011;58108;48.094;11.838;2022-08-21T04:47:40;2.60;;;1.08;;
70558;SDS011;58108;48.094;11.838;2022-08-21T04:50:05;2.03;;;0.90;;
70558;SDS011;58108;48.094;11.838;2022-08-21T04:52:31;2.47;;;0.98;;
70558;SDS011;58108;48.094;11.838;2022-08-21T04:54:57;2.17;;;0.90;;
70558;SDS011;58108;48.094;11.838;2022-08-21T04:57:22;2.97;;;0.83;;
70558;SDS011;58108;48.094;11.838;2022-08-21T04:59:48;2.10;;;0.80;;
70558;SDS011;58108;48.094;11.838;2022-08-21T05:02:16;2.05;;;0.73;;
70558;SDS011;58108;48.094;11.838;2022-08-21T05:04:47;2.72;;;0.80;;
70558;SDS011;58108;48.094;11.838;2022-08-21T05:07:16;3.03;;;1.00;;
70558;SDS011;58108;48.094;11.838;2022-08-21T05:09:48;2.17;;;0.90;;
70558;SDS011;58108;48.094;11.838;2022-08-21T05:12:14;2.20;;;0.90;;
70558;SDS011;58108;48.094;11.838;2022-08-21T05:14:40;3.08;;;0.65;;
70558;SDS011;58108;48.094;11.838;2022-08-21T05:17:07;3.37;;;0.97;;
70558;SDS011;58108;48.094;11.838;2022-08-21T05:19:32;2.55;;;0.70;;
70558;SDS011;58108;48.094;11.838;2022-08-21T05:21:58;3.13;;;0.90;;
70558;SDS011;58108;48.094;11.838;2022-08-21T05:24:23;2.10;;;0.80;;
70558;SDS011;58108;48.094;11.838;2022-08-21T05:26:49;2.17;;;0.77;;
70558;SDS011;58108;48.094;11.838;2022-08-21T05:29:15;2.00;;;0.73;;
70558;SDS011;58108;48.094;11.838;2022-08-21T05:31:41;2.25;;;0.90;;
70558;SDS011;58108;48.094;11.838;2022-08-21T05:34:06;2.77;;;0.70;;
70558;SDS011;58108;48.094;11.838;2022-08-21T05:36:33;1.98;;;0.88;;
70558;SDS011;58108;48.094;11.838;2022-08-21T05:38:58;2.70;;;0.87;;
70558;SDS011;58108;48.094;11.838;2022-08-21T05:41:23;2.73;;;0.90;;
70558;SDS011;58108;48.094;11.838;2022-08-21T05:43:49;2.87;;;0.90;;
70558;SDS011;58108;48.094;11.838;2022-08-21T05:46:14;2.60;;;0.73;;
70558;SDS011;58108;48.094;11.838;2022-08-21T05:48:40;2.25;;;0.85;;
70558;SDS011;58108;48.094;11.838;2022-08-21T05:51:06;2.13;;;0.90;;
70558;SDS011;58108;48.094;11.838;2022-08-21T05:53:36;2.95;;;0.70;;
70558;SDS011;58108;48.094;11.838;2022-08-21T05:56:03;1.77;;;0.70;;
70558;SDS011;58108;48.094;11.838;2022-08-21T05:58:29;1.90;;;0.73;;
70558;SDS011;58108;48.094;11.838;2022-08-21T06:00:56;1.92;;;0.82;;
70558;SDS011;58108;48.094;11.838;2022-08-21T06:03:24;3.10;;;0.70;;
70558;SDS011;58108;48.094;11.838;2022-08-21T06:05:52;2.67;;;0.63;;
70558;SDS011;58108;48.094;11.838;2022-08-21T06:08:18;1.98;;;0.65;;
70558;SDS011;58108;48.094;11.838;2022-08-21T06:10:45;1.70;;;0.70;;
70558;SDS011;58108;48.094;11.838;2022-08-21T06:13:11;2.47;;;0.70;;
70558;SDS011;58108;48.094;11.838;2022-08-21T06:15:37;2.60;;;0.80;;
70558;SDS011;58108;48.094;11.838;2022-08-21T06:18:03;2.13;;;0.90;;
70558;SDS011;58108;48.094;11.838;2022-08-21T06:20:28;2.35;;;0.75;;
70558;SDS011;58108;48.094;11.838;2022-08-21T06:22:54;2.33;;;1.00;;
70558;SDS011;58108;48.094;11.838;2022-08-21T06:25:19;2.10;;;0.90;;
70558;SDS011;58108;48.094;11.838;2022-08-21T06:27:45;1.80;;;0.60;;
70558;SDS011;58108;48.094;11.838;2022-08-21T06:30:11;2.97;;;0.93;;
70558;SDS011;58108;48.094;11.838;2022-08-21T06:32:37;3.20;;;0.90;;
70558;SDS011;58108;48.094;11.838;2022-08-21T06:35:03;1.90;;;0.80;;
70558;SDS011;58108;48.094;11.838;2022-08-21T06:37:30;2.20;;;0.65;;
70558;SDS011;58108;48.094;11.838;2022-08-21T06:39:56;3.15;;;0.80;;
70558;SDS011;58108;48.094;11.838;2022-08-21T06:42:21;2.53;;;0.60;;
70558;SDS011;58108;48.094;11.838;2022-08-21T06:44:47;2.80;;;0.80;;
70558;SDS011;58108;48.094;11.838;2022-08-21T06:47:12;2.15;;;0.90;;
70558;SDS011;58108;48.094;11.838;2022-08-21T06:49:39;2.88;;;0.90;;
70558;SDS011;58108;48.094;11.838;2022-08-21T06:52:08;2.87;;;1.07;;
70558;SDS011;58108;48.094;11.838;2022-08-21T06:54:35;1.95;;;0.77;;
70558;SDS011;58108;48.094;11.838;2022-08-21T06:57:00;3.37;;;1.00;;
70558;SDS011;58108;48.094;11.838;2022-08-21T06:59:25;1.97;;;0.90;;
70558;SDS011;58108;48.094;11.838;2022-08-21T07:01:51;3.23;;;0.77;;
70558;SDS011;58108;48.094;11.838;2022-08-21T07:04:16;2.50;;;1.00;;
70558;SDS011;58108;48.094;11.838;2022-08-21T07:06:41;4.07;;;1.30;;
70558;SDS011;58108;48.094;11.838;2022-08-21T07:09:07;2.90;;;0.90;;
70558;SDS011;58108;48.094;11.838;2022-08-21T07:11:32;2.83;;;1.00;;
70558;SDS011;58108;48.094;11.838;2022-08-21T07:14:00;2.60;;;1.08;;
70558;SDS011;58108;48.094;11.838;2022-08-21T07:16:25;2.37;;;1.10;;
70558;SDS011;58108;48.094;11.838;2022-08-21T07:18:51;3.03;;;1.20;;
70558;SDS011;58108;48.094;11.838;2022-08-21T07:21:16;2.50;;;1.13;;
70558;SDS011;58108;48.094;11.838;2022-08-21T07:23:43;3.05;;;1.13;;
70558;SDS011;58108;48.094;11.838;2022-08-21T07:26:11;3.40;;;1.43;;
70558;SDS011;58108;48.094;11.838;2022-08-21T07:28:36;2.88;;;1.05;;
70558;SDS011;58108;48.094;11.838;2022-08-21T07:31:02;3.10;;;1.20;;
70558;SDS011;58108;48.094;11.838;2022-08-21T07:33:29;3.60;;;1.70;;
70558;SDS011;58108;48.094;11.838;2022-08-21T07:35:57;2.55;;;1.30;;
70558;SDS011;58108;48.094;11.838;2022-08-21T07:38:23;4.50;;;1.60;;
70558;SDS011;58108;48.094;11.838;2022-08-21T07:40:48;3.83;;;1.73;;
70558;SDS011;58108;48.094;11.838;2022-08-21T07:43:15;3.43;;;1.40;;
70558;SDS011;58108;48.094;11.838;2022-08-21T07:45:43;3.45;;;1.50;;
70558;SDS011;58108;48.094;11.838;2022-08-21T07:48:09;3.88;;;1.50;;
70558;SDS011;58108;48.094;11.838;2022-08-21T07:50:35;3.23;;;1.50;;
70558;SDS011;58108;48.094;11.838;2022-08-21T07:53:00;4.47;;;1.75;;
70558;SDS011;58108;48.094;11.838;2022-08-21T07:55:26;2.70;;;1.60;;
70558;SDS011;58108;48.094;11.838;2022-08-21T07:57:51;4.20;;;1.70;;
70558;SDS011;58108;48.094;11.838;2022-08-21T08:00:18;3.60;;;1.40;;
70558;SDS011;58108;48.094;11.838;2022-08-21T08:02:47;3.28;;;1.60;;
70558;SDS011;58108;48.094;11.838;2022-08-21T08:05:17;3.72;;;1.83;;
70558;SDS011;58108;48.094;11.838;2022-08-21T08:07:44;2.92;;;1.50;;
70558;SDS011;58108;48.094;11.838;2022-08-21T08:10:10;4.10;;;1.80;;
70558;SDS011;58108;48.094;11.838;2022-08-21T08:12:39;3.15;;;1.67;;
70558;SDS011;58108;48.094;11.838;2022-08-21T08:15:07;3.63;;;1.60;;
70558;SDS011;58108;48.094;11.838;2022-08-21T08:17:35;2.85;;;1.70;;
70558;SDS011;58108;48.094;11.838;2022-08-21T08:20:03;3.85;;;1.73;;
70558;SDS011;58108;48.094;11.838;2022-08-21T08:22:30;3.60;;;1.98;;
70558;SDS011;58108;48.094;11.838;2022-08-21T08:24:55;3.17;;;1.57;;
70558;SDS011;58108;48.094;11.838;2022-08-21T08:27:21;4.55;;;1.67;;
70558;SDS011;58108;48.094;11.838;2022-08-21T08:29:47;4.63;;;2.50;;
70558;SDS011;58108;48.094;11.838;2022-08-21T08:32:13;5.35;;;2.30;;
70558;SDS011;58108;48.094;11.838;2022-08-21T08:34:39;4.47;;;2.50;;
70558;SDS011;58108;48.094;11.838;2022-08-21T08:37:05;4.13;;;2.40;;
70558;SDS011;58108;48.094;11.838;2022-08-21T08:39:32;4.75;;;2.60;;
70558;SDS011;58108;48.094;11.838;2022-08-21T08:42:11;5.47;;;2.27;;
70558;SDS011;58108;48.094;11.838;2022-08-21T08:44:41;5.00;;;2.08;;
70558;SDS011;58108;48.094;11.838;2022-08-21T08:47:08;3.45;;;2.22;;
70558;SDS011;58108;48.094;11.838;2022-08-21T08:49:38;4.47;;;2.30;;
70558;SDS011;58108;48.094;11.838;2022-08-21T08:57:51;3.85;;;2.10;;
70558;SDS011;58108;48.094;11.838;2022-08-21T09:00:19;4.65;;;2.33;;
70558;SDS011;58108;48.094;11.838;2022-08-21T09:02:46;3.67;;;2.20;;
70558;SDS011;58108;48.094;11.838;2022-08-21T09:05:20;3.77;;;2.13;;
70558;SDS011;58108;48.094;11.838;2022-08-21T09:08:40;4.50;;;2.20;;
70558;SDS011;58108;48.094;11.838;2022-08-21T09:21:20;3.90;;;2.00;;
70558;SDS011;58108;48.094;11.838;2022-08-21T09:26:20;3.33;;;2.10;;
70558;SDS011;58108;48.094;11.838;2022-08-21T09:28:52;4.47;;;2.30;;
70558;SDS011;58108;48.094;11.838;2022-08-21T09:31:22;3.60;;;1.98;;
70558;SDS011;58108;48.094;11.838;2022-08-21T09:33:56;5.35;;;2.50;;
70558;SDS011;58108;48.094;11.838;2022-08-21T09:36:24;3.60;;;2.13;;
70558;SDS011;58108;48.094;11.838;2022-08-21T09:38:56;4.05;;;2.20;;
70558;SDS011;58108;48.094;11.838;2022-08-21T09:41:30;4.13;;;2.13;;
70558;SDS011;58108;48.094;11.838;2022-08-21T09:43:58;4.30;;;2.22;;
70558;SDS011;58108;48.094;11.838;2022-08-21T09:46:25;4.03;;;2.10;;
70558;SDS011;58108;48.094;11.838;2022-08-21T09:48:56;4.90;;;2.30;;
70558;SDS011;58108;48.094;11.838;2022-08-21T09:51:27;3.80;;;1.95;;
70558;SDS011;58108;48.094;11.838;2022-08-21T09:53:56;6.23;;;2.00;;
70558;SDS011;58108;48.094;11.838;2022-08-21T09:59:42;5.45;;;2.40;;
70558;SDS011;58108;48.094;11.838;2022-08-21T10:02:26;4.05;;;2.28;;
70558;SDS011;58108;48.094;11.838;2022-08-21T10:04:57;3.50;;;2.10;;
70558;SDS011;58108;48.094;11.838;2022-08-21T10:07:29;2.93;;;2.00;;
70558;SDS011;58108;48.094;11.838;2022-08-21T10:09:59;5.15;;;2.38;;
70558;SDS011;58108;48.094;11.838;2022-08-21T10:12:30;2.90;;;1.90;;
70558;SDS011;58108;48.094;11.838;2022-08-21T10:15:15;4.82;;;2.10;;
70558;SDS011;58108;48.094;11.838;2022-08-21T10:18:00;3.45;;;1.80;;
70558;SDS011;58108;48.094;11.838;2022-08-21T10:20:37;4.90;;;1.90;;
70558;SDS011;58108;48.094;11.838;2022-08-21T10:37:43;4.00;;;1.90;;
70558;SDS011;58108;48.094;11.838;2022-08-21T10:40:36;3.83;;;1.67;;
70558;SDS011;58108;48.094;11.838;2022-08-21T10:48:29;3.13;;;1.90;;
70558;SDS011;58108;48.094;11.838;2022-08-21T10:54:12;2.58;;;1.60;;
70558;SDS011;58108;48.094;11.838;2022-08-21T10:56:47;3.85;;;1.50;;
70558;SDS011;58108;48.094;11.838;2022-08-21T10:59:29;3.78;;;1.63;;
70558;SDS011;58108;48.094;11.838;2022-08-21T11:02:11;4.10;;;1.93;;
70558;SDS011;58108;48.094;11.838;2022-08-21T11:15:30;2.50;;;1.70;;
70558;SDS011;58108;48.094;11.838;2022-08-21T11:18:07;3.95;;;1.50;;
70558;SDS011;58108;48.094;11.838;2022-08-21T11:20:51;3.10;;;1.50;;
70558;SDS011;58108;48.094;11.838;2022-08-21T11:23:38;3.30;;;1.70;;
70558;SDS011;58108;48.094;11.838;2022-08-21T11:26:15;3.05;;;1.77;;
70558;SDS011;58108;48.094;11.838;2022-08-21T11:28:48;3.60;;;1.90;;
70558;SDS011;58108;48.094;11.838;2022-08-21T11:39:15;2.95;;;1.60;;
70558;SDS011;58108;48.094;11.838;2022-08-21T11:41:54;3.30;;;1.77;;
70558;SDS011;58108;48.094;11.838;2022-08-21T11:47:40;2.78;;;1.60;;
70558;SDS011;58108;48.094;11.838;2022-08-21T11:50:21;2.63;;;1.50;;
70558;SDS011;58108;48.094;11.838;2022-08-21T11:53:04;3.30;;;1.70;;
70558;SDS011;58108;48.094;11.838;2022-08-21T11:55:36;2.60;;;1.47;;
70558;SDS011;58108;48.094;11.838;2022-08-21T11:58:20;2.58;;;1.42;;
70558;SDS011;58108;48.094;11.838;2022-08-21T12:00:54;3.03;;;1.50;;
70558;SDS011;58108;48.094;11.838;2022-08-21T12:03:28;2.40;;;1.50;;
70558;SDS011;58108;48.094;11.838;2022-08-21T12:05:58;2.45;;;1.50;;
70558;SDS011;58108;48.094;11.838;2022-08-21T12:08:28;2.90;;;1.70;;
70558;SDS011;58108;48.094;11.838;2022-08-21T12:11:00;2.50;;;1.70;;
70558;SDS011;58108;48.094;11.838;2022-08-21T12:13:30;2.47;;;1.70;;
70558;SDS011;58108;48.094;11.838;2022-08-21T12:16:07;2.70;;;1.80;;
70558;SDS011;58108;48.094;11.838;2022-08-21T12:18:37;2.58;;;1.80;;
70558;SDS011;58108;48.094;11.838;2022-08-21T12:21:16;3.40;;;1.87;;
70558;SDS011;58108;48.094;11.838;2022-08-21T12:29:10;3.63;;;1.92;;
70558;SDS011;58108;48.094;11.838;2022-08-21T12:34:27;2.80;;;1.90;;
70558;SDS011;58108;48.094;11.838;2022-08-21T12:37:00;4.10;;;1.60;;
70558;SDS011;58108;48.094;11.838;2022-08-21T12:39:46;3.08;;;1.75;;
70558;SDS011;58108;48.094;11.838;2022-08-21T12:42:24;2.95;;;1.67;;
70558;SDS011;58108;48.094;11.838;2022-08-21T12:45:00;3.58;;;1.63;;
70558;SDS011;58108;48.094;11.838;2022-08-21T12:50:15;2.65;;;1.60;;
70558;SDS011;58108;48.094;11.838;2022-08-21T12:52:45;2.80;;;1.65;;
70558;SDS011;58108;48.094;11.838;2022-08-21T12:55:26;2.83;;;1.80;;
70558;SDS011;58108;48.094;11.838;2022-08-21T12:57:53;2.38;;;1.58;;
70558;SDS011;58108;48.094;11.838;2022-08-21T13:00:21;2.93;;;1.50;;
70558;SDS011;58108;48.094;11.838;2022-08-21T13:02:48;3.13;;;1.60;;
70558;SDS011;58108;48.094;11.838;2022-08-21T13:05:19;4.43;;;2.30;;
70558;SDS011;58108;48.094;11.838;2022-08-21T13:08:02;3.10;;;2.03;;
70558;SDS011;58108;48.094;11.838;2022-08-21T13:10:33;2.70;;;1.60;;
70558;SDS011;58108;48.094;11.838;2022-08-21T13:13:02;2.72;;;1.83;;
70558;SDS011;58108;48.094;11.838;2022-08-21T13:15:37;3.58;;;1.70;;
70558;SDS011;58108;48.094;11.838;2022-08-21T13:18:04;2.93;;;1.70;;
70558;SDS011;58108;48.094;11.838;2022-08-21T13:20:32;5.80;;;2.45;;
70558;SDS011;58108;48.094;11.838;2022-08-21T13:23:03;2.85;;;1.77;;
70558;SDS011;58108;48.094;11.838;2022-08-21T13:25:34;3.05;;;2.00;;
70558;SDS011;58108;48.094;11.838;2022-08-21T13:28:09;2.55;;;1.83;;
70558;SDS011;58108;48.094;11.838;2022-08-21T13:30:49;2.63;;;1.70;;
70558;SDS011;58108;48.094;11.838;2022-08-21T13:33:18;2.53;;;1.70;;
70558;SDS011;58108;48.094;11.838;2022-08-21T13:38:28;3.30;;;2.00;;
70558;SDS011;58108;48.094;11.838;2022-08-21T13:41:03;3.60;;;2.10;;
70558;SDS011;58108;48.094;11.838;2022-08-21T13:43:35;2.93;;;2.00;;
70558;SDS011;58108;48.094;11.838;2022-08-21T13:46:02;2.60;;;1.73;;
70558;SDS011;58108;48.094;11.838;2022-08-21T13:48:33;3.40;;;1.70;;
70558;SDS011;58108;48.094;11.838;2022-08-21T13:51:00;3.35;;;1.77;;
70558;SDS011;58108;48.094;11.838;2022-08-21T13:55:58;2.77;;;1.80;;
70558;SDS011;58108;48.094;11.838;2022-08-21T13:58:41;2.70;;;1.50;;
70558;SDS011;58108;48.094;11.838;2022-08-21T14:03:53;2.55;;;1.70;;
70558;SDS011;58108;48.094;11.838;2022-08-21T14:06:23;2.78;;;1.38;;
70558;SDS011;58108;48.094;11.838;2022-08-21T14:09:00;2.57;;;1.33;;
70558;SDS011;58108;48.094;11.838;2022-08-21T14:11:33;4.25;;;1.40;;
70558;SDS011;58108;48.094;11.838;2022-08-21T14:14:02;2.63;;;1.40;;
70558;SDS011;58108;48.094;11.838;2022-08-21T14:16:44;3.47;;;1.63;;
70558;SDS011;58108;48.094;11.838;2022-08-21T14:19:22;2.42;;;1.73;;
70558;SDS011;58108;48.094;11.838;2022-08-21T14:21:49;3.93;;;2.07;;
70558;SDS011;58108;48.094;11.838;2022-08-21T14:26:50;2.42;;;1.60;;
70558;SDS011;58108;48.094;11.838;2022-08-21T14:29:19;3.10;;;2.00;;
70558;SDS011;58108;48.094;11.838;2022-08-21T14:31:51;3.07;;;1.70;;
70558;SDS011;58108;48.094;11.838;2022-08-21T14:34:20;2.22;;;1.42;;
70558;SDS011;58108;48.094;11.838;2022-08-21T14:36:47;2.42;;;1.70;;
70558;SDS011;58108;48.094;11.838;2022-08-21T14:39:13;3.78;;;1.80;;
70558;SDS011;58108;48.094;11.838;2022-08-21T14:41:39;3.73;;;2.00;;
70558;SDS011;58108;48.094;11.838;2022-08-21T14:44:05;2.80;;;1.80;;
70558;SDS011;58108;48.094;11.838;2022-08-21T14:46:32;3.85;;;1.60;;
70558;SDS011;58108;48.094;11.838;2022-08-21T14:48:59;2.70;;;1.70;;
70558;SDS011;58108;48.094;11.838;2022-08-21T14:51:24;3.03;;;1.60;;
70558;SDS011;58108;48.094;11.838;2022-08-21T14:53:50;3.10;;;1.83;;
70558;SDS011;58108;48.094;11.838;2022-08-21T14:56:15;2.50;;;1.57;;
70558;SDS011;58108;48.094;11.838;2022-08-21T14:58:42;2.63;;;1.75;;
70558;SDS011;58108;48.094;11.838;2022-08-21T15:01:11;4.07;;;1.70;;
70558;SDS011;58108;48.094;11.838;2022-08-21T15:03:38;3.15;;;2.05;;
70558;SDS011;58108;48.094;11.838;2022-08-21T15:06:04;3.47;;;1.97;;
70558;SDS011;58108;48.094;11.838;2022-08-21T15:08:30;3.17;;;2.00;;
70558;SDS011;58108;48.094;11.838;2022-08-21T15:10:57;4.25;;;1.83;;
70558;SDS011;58108;48.094;11.838;2022-08-21T15:13:23;2.75;;;1.90;;
70558;SDS011;58108;48.094;11.838;2022-08-21T15:15:49;3.33;;;1.80;;
70558;SDS011;58108;48.094;11.838;2022-08-21T15:18:18;2.22;;;1.65;;
70558;SDS011;58108;48.094;11.838;2022-08-21T15:20:45;3.58;;;1.90;;
70558;SDS011;58108;48.094;11.838;2022-08-21T15:23:11;3.47;;;1.60;;
70558;SDS011;58108;48.094;11.838;2022-08-21T15:25:39;2.60;;;1.90;;
70558;SDS011;58108;48.094;11.838;2022-08-21T15:28:06;2.63;;;1.90;;
70558;SDS011;58108;48.094;11.838;2022-08-21T15:30:31;3.53;;;1.87;;
70558;SDS011;58108;48.094;11.838;2022-08-21T15:32:57;3.05;;;1.70;;
70558;SDS011;58108;48.094;11.838;2022-08-21T15:35:23;3.07;;;1.80;;
70558;SDS011;58108;48.094;11.838;2022-08-21T15:37:48;2.60;;;1.50;;
70558;SDS011;58108;48.094;11.838;2022-08-21T15:40:14;2.27;;;1.60;;
70558;SDS011;58108;48.094;11.838;2022-08-21T15:42:40;2.75;;;1.77;;
70558;SDS011;58108;48.094;11.838;2022-08-21T15:45:07;3.10;;;1.55;;
70558;SDS011;58108;48.094;11.838;2022-08-21T15:47:35;2.53;;;1.70;;
70558;SDS011;58108;48.094;11.838;2022-08-21T15:50:03;3.00;;;1.70;;
70558;SDS011;58108;48.094;11.838;2022-08-21T15:52:30;2.60;;;1.97;;
70558;SDS011;58108;48.094;11.838;2022-08-21T15:54:56;2.77;;;1.83;;
70558;SDS011;58108;48.094;11.838;2022-08-21T15:57:22;3.33;;;1.77;;
70558;SDS011;58108;48.094;11.838;2022-08-21T15:59:53;2.73;;;1.77;;
70558;SDS011;58108;48.094;11.838;2022-08-21T16:02:23;2.45;;;1.58;;
70558;SDS011;58108;48.094;11.838;2022-08-21T16:04:51;3.22;;;1.80;;
70558;SDS011;58108;48.094;11.838;2022-08-21T16:07:16;3.55;;;1.73;;
70558;SDS011;58108;48.094;11.838;2022-08-21T16:09:42;2.53;;;1.80;;